Tetide — IVTN — position and weather

sailwx.info

Track history (hours):
 
Tides and Currents Weather Stations Pressure Air Temp Water Temp Dewpoint Dewpoint Depression Visibility Wind Speed Wind Dir Waves Ship Positions

Tetide

Last reported at 2016-Apr-29 22:19 UTC. Time now 2016-May-01 13:37 UTC.
Position N 40°54' E 012°58'.

Length 70 m; draft 3.6 m.

Type: Passenger vessel. MMSI: 247043100.

Date/timePositionNaut miles runAvg speedWind from/ knotsBaromVisibWave heightAir tempDewpointWater temp
2016-Apr-29 22:19N 40°54' E 012°58'0 0.0
2016-Apr-29 21:33N 40°54' E 012°58'0 0.0
2016-Apr-29 20:33N 40°54' E 012°58'0 0.0
2016-Apr-29 19:33N 40°54' E 012°58'0 0.0
2016-Apr-29 18:25N 40°54' E 012°58'1112.9
2016-Apr-29 17:33N 40°60' E 013°10'1414.3
2016-Apr-29 16:33N 41°07' E 013°26'1111.0
2016-Apr-29 15:33N 41°15' E 013°37'7 7.3
2016-Apr-29 14:33N 41°10' E 013°31'1514.9
2016-Apr-29 13:33N 41°01' E 013°15'18 3.0
2016-Apr-29 07:32N 41°11' E 013°35'4 3.7
2016-Apr-29 06:23N 41°15' E 013°37'7 8.1
2016-Apr-29 05:33N 41°10' E 013°31'1515.0
2016-Apr-29 04:33N 41°02' E 013°15'10 1.0
2016-Apr-28 18:04N 40°56' E 013°03'2514.7
2016-Apr-28 16:20N 41°10' E 013°31'6 6.9
2016-Apr-28 15:24N 41°15' E 013°37'6 6.9
2016-Apr-28 14:33N 41°10' E 013°36'1514.9
2016-Apr-28 13:33N 40°56' E 013°29'8 7.8
2016-Apr-28 12:32N 40°48' E 013°26'0 0.0
2016-Apr-28 11:33N 40°48' E 013°26'0 0.0
2016-Apr-28 10:33N 40°48' E 013°26'1 1.2
2016-Apr-28 09:33N 40°49' E 013°26'1514.5
2016-Apr-28 08:33N 41°03' E 013°32'1312.4
2016-Apr-28 07:31N 41°15' E 013°37'0 0.0
2016-Apr-28 06:20N 41°15' E 013°37'7 8.6
2016-Apr-28 05:33N 41°10' E 013°31'1 0.1
2016-Apr-27 16:09N 41°11' E 013°32'6 9.9
2016-Apr-27 15:33N 41°15' E 013°37'9 8.6
2016-Apr-27 14:30N 41°08' E 013°29'6 0.9
2016-Apr-27 07:29N 41°12' E 013°35'3 3.6
2016-Apr-27 06:33N 41°15' E 013°37'8 7.4
2016-Apr-27 05:31N 41°09' E 013°30'8 0.5
2016-Apr-26 15:28N 41°15' E 013°37'4 0.5
2016-Apr-26 07:27N 41°12' E 013°34'4 4.6
2016-Apr-26 06:33N 41°15' E 013°37'7 7.1
2016-Apr-26 05:34N 41°10' E 013°31'1 0.0
2016-Apr-25 16:14N 41°10' E 013°30'7 7.6
2016-Apr-25 15:18N 41°15' E 013°37'911.9
2016-Apr-25 14:33N 41°07' E 013°33'1313.3
2016-Apr-25 13:34N 40°55' E 013°26'7 6.7
2016-Apr-25 12:33N 40°48' E 013°26'0 0.0
2016-Apr-25 11:34N 40°48' E 013°26'0 0.0
2016-Apr-25 10:33N 40°48' E 013°26'2 2.1
2016-Apr-25 09:34N 40°50' E 013°25'1712.5
2016-Apr-25 08:11N 41°06' E 013°32'913.6
2016-Apr-25 07:33N 41°14' E 013°37'2 2.0
2016-Apr-25 06:27N 41°12' E 013°35'4 0.2
2016-Apr-24 08:15N 41°09' E 013°32'710.0
2016-Apr-24 07:33N 41°15' E 013°37'1 1.0
2016-Apr-24 06:33N 41°14' E 013°37'1 0.0
2016-Apr-23 06:30N 41°15' E 013°37'7 7.1
2016-Apr-23 05:32N 41°10' E 013°32'1 0.1
2016-Apr-22 16:11N 41°10' E 013°31'710.8
2016-Apr-22 15:32N 41°15' E 013°37'6 5.6
2016-Apr-22 14:33N 41°10' E 013°35'1515.1
2016-Apr-22 13:33N 40°56' E 013°29'8 8.1
2016-Apr-22 12:34N 40°48' E 013°26'0 0.0
2016-Apr-22 11:29N 40°48' E 013°26'0 0.0
2016-Apr-22 10:33N 40°48' E 013°26'0 0.0
2016-Apr-22 09:32N 40°48' E 013°26'1313.2
2016-Apr-22 08:33N 41°00' E 013°31'1514.9
2016-Apr-22 07:33N 41°15' E 013°37'1 0.9
2016-Apr-22 06:33N 41°15' E 013°37'2110.7
2016-Apr-22 04:34N 41°02' E 013°15'21 1.6
2016-Apr-21 15:30N 41°15' E 013°37'5 5.7
2016-Apr-21 14:33N 41°10' E 013°36'1515.1
2016-Apr-21 13:33N 40°56' E 013°29'8 8.0
2016-Apr-21 12:32N 40°48' E 013°26'0 0.0
2016-Apr-21 11:33N 40°48' E 013°26'0 0.0
2016-Apr-21 10:33N 40°48' E 013°26'0 0.0
2016-Apr-21 09:32N 40°48' E 013°26'1212.4
2016-Apr-21 08:33N 40°59' E 013°31'1514.6
2016-Apr-21 07:32N 41°13' E 013°37'2 2.0
2016-Apr-21 06:33N 41°15' E 013°37'7 6.6
2016-Apr-21 05:33N 41°10' E 013°31'1514.9
2016-Apr-21 04:34N 41°02' E 013°15'1514.8
2016-Apr-21 03:33N 40°54' E 012°58'1 0.1
2016-Apr-20 20:27N 40°54' E 012°58'0 0.0
2016-Apr-20 19:30N 40°54' E 012°58'0 0.0
2016-Apr-20 18:33N 40°54' E 012°58'1312.7
2016-Apr-20 17:33N 41°01' E 013°12'1515.0
2016-Apr-20 16:33N 41°09' E 013°29'9 8.8
2016-Apr-20 15:33N 41°15' E 013°37'6 5.9
2016-Apr-20 14:33N 41°10' E 013°36'1514.8
2016-Apr-20 13:33N 40°56' E 013°29'8 8.0
2016-Apr-20 12:33N 40°48' E 013°26'0 0.0
2016-Apr-20 11:33N 40°48' E 013°26'0 0.0
2016-Apr-20 10:33N 40°48' E 013°26'0 0.0
2016-Apr-20 09:33N 40°48' E 013°26'1110.9
2016-Apr-20 08:33N 40°58' E 013°30'1514.7
2016-Apr-20 07:33N 41°12' E 013°36'3 2.9
2016-Apr-20 06:33N 41°15' E 013°37'6 5.7
2016-Apr-20 05:33N 41°11' E 013°32'1615.3
2016-Apr-20 04:32N 41°02' E 013°15'15 2.5
2016-Apr-19 22:32N 40°54' E 012°58'  
Track history (hours):
 
Tides and Currents Weather Stations Pressure Air Temp Water Temp Dewpoint Dewpoint Depression Visibility Wind Speed Wind Dir Waves Ship Positions

Tetide

Last reported at 2016-Apr-29 22:19 UTC. Time now 2016-May-01 13:37 UTC.
Position N 40°54' E 012°58'.

Length 70 m; draft 3.6 m.

Type: Passenger vessel. MMSI: 247043100.

Date/timePositionNaut miles runAvg speedWind from/ knotsBaromVisibWave heightAir tempDewpointWater temp
2016-Apr-29 22:19N 40°54' E 012°58'0 0.0
2016-Apr-29 21:33N 40°54' E 012°58'0 0.0
2016-Apr-29 20:33N 40°54' E 012°58'0 0.0
2016-Apr-29 19:33N 40°54' E 012°58'0 0.0
2016-Apr-29 18:25N 40°54' E 012°58'1112.9
2016-Apr-29 17:33N 40°60' E 013°10'1414.3
2016-Apr-29 16:33N 41°07' E 013°26'1111.0
2016-Apr-29 15:33N 41°15' E 013°37'7 7.3
2016-Apr-29 14:33N 41°10' E 013°31'1514.9
2016-Apr-29 13:33N 41°01' E 013°15'18 3.0
2016-Apr-29 07:32N 41°11' E 013°35'4 3.7
2016-Apr-29 06:23N 41°15' E 013°37'7 8.1
2016-Apr-29 05:33N 41°10' E 013°31'1515.0
2016-Apr-29 04:33N 41°02' E 013°15'10 1.0
2016-Apr-28 18:04N 40°56' E 013°03'2514.7
2016-Apr-28 16:20N 41°10' E 013°31'6 6.9
2016-Apr-28 15:24N 41°15' E 013°37'6 6.9
2016-Apr-28 14:33N 41°10' E 013°36'1514.9
2016-Apr-28 13:33N 40°56' E 013°29'8 7.8
2016-Apr-28 12:32N 40°48' E 013°26'0 0.0
2016-Apr-28 11:33N 40°48' E 013°26'0 0.0
2016-Apr-28 10:33N 40°48' E 013°26'1 1.2
2016-Apr-28 09:33N 40°49' E 013°26'1514.5
2016-Apr-28 08:33N 41°03' E 013°32'1312.4
2016-Apr-28 07:31N 41°15' E 013°37'0 0.0
2016-Apr-28 06:20N 41°15' E 013°37'7 8.6
2016-Apr-28 05:33N 41°10' E 013°31'1 0.1
2016-Apr-27 16:09N 41°11' E 013°32'6 9.9
2016-Apr-27 15:33N 41°15' E 013°37'9 8.6
2016-Apr-27 14:30N 41°08' E 013°29'6 0.9
2016-Apr-27 07:29N 41°12' E 013°35'3 3.6
2016-Apr-27 06:33N 41°15' E 013°37'8 7.4
2016-Apr-27 05:31N 41°09' E 013°30'8 0.5
2016-Apr-26 15:28N 41°15' E 013°37'4 0.5
2016-Apr-26 07:27N 41°12' E 013°34'4 4.6
2016-Apr-26 06:33N 41°15' E 013°37'7 7.1
2016-Apr-26 05:34N 41°10' E 013°31'1 0.0
2016-Apr-25 16:14N 41°10' E 013°30'7 7.6
2016-Apr-25 15:18N 41°15' E 013°37'911.9
2016-Apr-25 14:33N 41°07' E 013°33'1313.3
2016-Apr-25 13:34N 40°55' E 013°26'7 6.7
2016-Apr-25 12:33N 40°48' E 013°26'0 0.0
2016-Apr-25 11:34N 40°48' E 013°26'0 0.0
2016-Apr-25 10:33N 40°48' E 013°26'2 2.1
2016-Apr-25 09:34N 40°50' E 013°25'1712.5
2016-Apr-25 08:11N 41°06' E 013°32'913.6
2016-Apr-25 07:33N 41°14' E 013°37'2 2.0
2016-Apr-25 06:27N 41°12' E 013°35'4 0.2
2016-Apr-24 08:15N 41°09' E 013°32'710.0
2016-Apr-24 07:33N 41°15' E 013°37'1 1.0
2016-Apr-24 06:33N 41°14' E 013°37'1 0.0
2016-Apr-23 06:30N 41°15' E 013°37'7 7.1
2016-Apr-23 05:32N 41°10' E 013°32'1 0.1
2016-Apr-22 16:11N 41°10' E 013°31'710.8
2016-Apr-22 15:32N 41°15' E 013°37'6 5.6
2016-Apr-22 14:33N 41°10' E 013°35'1515.1
2016-Apr-22 13:33N 40°56' E 013°29'8 8.1
2016-Apr-22 12:34N 40°48' E 013°26'0 0.0
2016-Apr-22 11:29N 40°48' E 013°26'0 0.0
2016-Apr-22 10:33N 40°48' E 013°26'0 0.0
2016-Apr-22 09:32N 40°48' E 013°26'1313.2
2016-Apr-22 08:33N 41°00' E 013°31'1514.9
2016-Apr-22 07:33N 41°15' E 013°37'1 0.9
2016-Apr-22 06:33N 41°15' E 013°37'2110.7
2016-Apr-22 04:34N 41°02' E 013°15'21 1.6
2016-Apr-21 15:30N 41°15' E 013°37'5 5.7
2016-Apr-21 14:33N 41°10' E 013°36'1515.1
2016-Apr-21 13:33N 40°56' E 013°29'8 8.0
2016-Apr-21 12:32N 40°48' E 013°26'0 0.0
2016-Apr-21 11:33N 40°48' E 013°26'0 0.0
2016-Apr-21 10:33N 40°48' E 013°26'0 0.0
2016-Apr-21 09:32N 40°48' E 013°26'1212.4
2016-Apr-21 08:33N 40°59' E 013°31'1514.6
2016-Apr-21 07:32N 41°13' E 013°37'2 2.0
2016-Apr-21 06:33N 41°15' E 013°37'7 6.6
2016-Apr-21 05:33N 41°10' E 013°31'1514.9
2016-Apr-21 04:34N 41°02' E 013°15'1514.8
2016-Apr-21 03:33N 40°54' E 012°58'1 0.1
2016-Apr-20 20:27N 40°54' E 012°58'0 0.0
2016-Apr-20 19:30N 40°54' E 012°58'0 0.0
2016-Apr-20 18:33N 40°54' E 012°58'1312.7
2016-Apr-20 17:33N 41°01' E 013°12'1515.0
2016-Apr-20 16:33N 41°09' E 013°29'9 8.8
2016-Apr-20 15:33N 41°15' E 013°37'6 5.9
2016-Apr-20 14:33N 41°10' E 013°36'1514.8
2016-Apr-20 13:33N 40°56' E 013°29'8 8.0
2016-Apr-20 12:33N 40°48' E 013°26'0 0.0
2016-Apr-20 11:33N 40°48' E 013°26'0 0.0
2016-Apr-20 10:33N 40°48' E 013°26'0 0.0
2016-Apr-20 09:33N 40°48' E 013°26'1110.9
2016-Apr-20 08:33N 40°58' E 013°30'1514.7
2016-Apr-20 07:33N 41°12' E 013°36'3 2.9
2016-Apr-20 06:33N 41°15' E 013°37'6 5.7
2016-Apr-20 05:33N 41°11' E 013°32'1615.3
2016-Apr-20 04:32N 41°02' E 013°15'15 2.5
2016-Apr-19 22:32N 40°54' E 012°58'  

Dump ship's entire track history